Time;durP1;ratioP1;P1;durP2;ratioP2;P2;SDS_P1;SDS_P2;PMS_P1;PMS_P2;Temp;Humidity;BMP_temperature;BMP_pressure;BME280_temperature;BME280_humidity;BME280_pressure;Samples;Min_cycle;Max_cycle;Signal;HPM_P1;HPM_P2
2022/09/25 00:00:50;;;;;;;1.30;1.20;;;15.50;55.30;;;;;;4971741;28;20698;-70
2022/09/25 00:03:17;;;;;;;1.30;1.07;;;15.70;54.50;;;;;;4971983;28;20525;-70
2022/09/25 00:05:44;;;;;;;1.30;1.20;;;15.60;53.80;;;;;;4971655;28;20423;-70
2022/09/25 00:08:11;;;;;;;1.30;1.10;;;15.50;54.60;;;;;;4972334;28;20441;-70
2022/09/25 00:10:43;;;;;;;1.40;1.10;;;15.40;53.60;;;;;;4971977;28;20452;-69
2022/09/25 00:13:09;;;;;;;1.33;1.27;;;15.40;54.00;;;;;;4972035;28;20458;-70
2022/09/25 00:15:35;;;;;;;1.30;1.20;;;15.50;54.20;;;;;;4971825;28;20422;-69
2022/09/25 00:18:01;;;;;;;1.30;1.00;;;15.40;53.60;;;;;;4971024;28;20459;-70
2022/09/25 00:20:27;;;;;;;1.30;1.20;;;15.70;53.90;;;;;;4972139;28;22248;-70
2022/09/25 00:22:53;;;;;;;1.30;1.20;;;15.30;53.50;;;;;;4971246;28;20438;-70
2022/09/25 00:25:19;;;;;;;1.30;1.20;;;15.30;53.60;;;;;;4971910;28;20174;-70
2022/09/25 00:27:45;;;;;;;1.40;1.30;;;15.40;52.80;;;;;;4971985;28;20854;-70
2022/09/25 00:30:12;;;;;;;1.30;1.13;;;15.40;53.60;;;;;;4970730;28;20430;-70
2022/09/25 00:32:39;;;;;;;1.30;1.10;;;15.30;52.70;;;;;;4971443;28;20473;-70
2022/09/25 00:35:05;;;;;;;1.30;1.20;;;15.40;53.30;;;;;;4971657;28;20436;-70
2022/09/25 00:37:35;;;;;;;1.30;1.20;;;15.30;52.40;;;;;;4972008;28;20421;-70
2022/09/25 00:40:02;;;;;;;1.30;1.20;;;15.30;53.50;;;;;;4971744;28;20469;-70
2022/09/25 00:42:28;;;;;;;1.30;1.20;;;15.20;53.00;;;;;;4971139;28;20445;-70
2022/09/25 00:44:56;;;;;;;1.30;1.20;;;15.20;53.40;;;;;;4971409;28;20864;-70
2022/09/25 00:47:27;;;;;;;1.30;1.17;;;15.10;53.30;;;;;;4964234;28;20587;-70
2022/09/25 00:49:55;;;;;;;1.30;1.10;;;15.00;54.60;;;;;;4979354;28;20830;-70
2022/09/25 00:52:22;;;;;;;1.30;1.17;;;15.20;53.40;;;;;;4970575;28;20467;-70
2022/09/25 00:54:59;;;;;;;1.30;1.10;;;15.40;53.60;;;;;;4971255;28;20936;-70
2022/09/25 00:57:29;;;;;;;1.30;1.20;;;15.00;53.20;;;;;;4971649;28;21001;-70
2022/09/25 01:00:06;;;;;;;1.40;1.20;;;15.00;53.20;;;;;;4971624;28;20991;-70
2022/09/25 01:02:37;;;;;;;1.40;1.17;;;15.10;53.40;;;;;;4964320;28;20434;-70
2022/09/25 01:05:06;;;;;;;1.30;1.00;;;15.40;53.60;;;;;;4971207;28;20484;-70
2022/09/25 01:07:35;;;;;;;1.30;1.10;;;15.30;52.30;;;;;;4971382;28;20472;-70
2022/09/25 01:10:02;;;;;;;1.30;1.10;;;15.20;53.40;;;;;;4971787;28;20423;-70
2022/09/25 01:12:28;;;;;;;1.30;1.10;;;15.00;53.80;;;;;;4968431;28;20473;-70
2022/09/25 01:14:55;;;;;;;1.30;1.20;;;15.00;53.50;;;;;;4971001;28;20422;-70
2022/09/25 01:17:23;;;;;;;1.30;1.10;;;15.10;54.30;;;;;;4971521;28;20186;-70
2022/09/25 01:20:09;;;;;;;1.40;1.23;;;15.20;53.30;;;;;;4971558;28;20522;-70
2022/09/25 01:23:21;;;;;;;1.40;1.30;;;15.20;52.20;;;;;;4967767;28;20925;-70
2022/09/25 01:26:05;;;;;;;1.30;1.20;;;14.90;51.70;;;;;;4970089;28;20422;-70
2022/09/25 01:29:10;;;;;;;1.30;1.10;;;14.80;52.10;;;;;;4971036;28;20494;-70
2022/09/25 01:32:01;;;;;;;1.30;1.10;;;14.90;52.40;;;;;;4964617;28;20481;-69
2022/09/25 01:35:06;;;;;;;1.40;1.30;;;14.80;53.10;;;;;;4970966;28;20410;-70
2022/09/25 01:37:31;;;;;;;1.30;1.20;;;14.70;52.90;;;;;;4957299;28;20493;-70
2022/09/25 01:40:23;;;;;;;1.30;1.13;;;15.00;52.00;;;;;;4973777;28;20422;-69
2022/09/25 01:42:59;;;;;;;1.30;1.10;;;14.90;52.30;;;;;;4974311;28;20262;-69
2022/09/25 01:45:37;;;;;;;1.30;1.20;;;14.70;52.60;;;;;;4974391;28;20877;-70
2022/09/25 01:48:04;;;;;;;1.30;1.20;;;14.80;52.90;;;;;;4974700;28;20972;-70
2022/09/25 01:50:58;;;;;;;1.30;1.10;;;14.90;51.10;;;;;;4974794;28;20465;-70
2022/09/25 01:53:41;;;;;;;1.30;1.20;;;14.70;52.00;;;;;;4960716;28;20779;-70
2022/09/25 01:56:16;;;;;;;1.30;1.10;;;14.60;51.60;;;;;;4974764;28;20418;-70
2022/09/25 01:58:53;;;;;;;1.30;1.10;;;14.50;52.80;;;;;;4974279;28;20421;-70
2022/09/25 02:01:25;;;;;;;1.30;1.20;;;14.40;52.60;;;;;;4974576;28;20475;-70
2022/09/25 02:03:59;;;;;;;1.30;1.10;;;14.50;53.50;;;;;;4973823;28;20414;-70
2022/09/25 02:06:25;;;;;;;1.30;1.10;;;14.60;52.00;;;;;;4974783;28;20418;-69
2022/09/25 02:09:03;;;;;;;1.30;1.20;;;14.60;51.70;;;;;;4974404;28;20937;-69
2022/09/25 02:11:35;;;;;;;1.30;1.10;;;14.60;52.20;;;;;;4973909;28;21059;-70
2022/09/25 02:14:13;;;;;;;1.40;1.20;;;14.50;52.20;;;;;;4973381;28;20517;-70
2022/09/25 02:16:43;;;;;;;1.40;1.20;;;14.50;51.70;;;;;;4973798;28;20480;-70
2022/09/25 02:22:25;;;;;;;1.30;1.10;;;14.60;52.10;;;;;;4973660;28;21225;-70
2022/09/25 02:24:56;;;;;;;1.30;1.10;;;14.60;51.30;;;;;;4973526;28;20987;-70
2022/09/25 02:27:24;;;;;;;1.30;1.00;;;14.70;51.50;;;;;;4973916;28;20424;-69
2022/09/25 02:29:51;;;;;;;1.30;1.10;;;14.50;51.40;;;;;;4973933;28;20933;-69
2022/09/25 02:32:21;;;;;;;1.30;1.10;;;14.60;51.20;;;;;;4973661;28;20462;-69
2022/09/25 02:34:47;;;;;;;1.30;1.13;;;14.40;52.10;;;;;;4973499;28;20472;-70
2022/09/25 02:37:14;;;;;;;1.67;1.40;;;14.40;52.70;;;;;;4973885;28;20944;-70
2022/09/25 02:39:43;;;;;;;1.33;1.20;;;14.30;53.00;;;;;;4973531;28;20429;-70
2022/09/25 02:42:18;;;;;;;1.30;1.10;;;14.30;54.00;;;;;;4973108;28;20504;-70
2022/09/25 02:45:02;;;;;;;1.40;1.27;;;14.30;54.00;;;;;;4973411;28;20418;-70
2022/09/25 02:47:36;;;;;;;1.30;1.10;;;14.30;54.30;;;;;;4974035;28;20529;-70
2022/09/25 02:50:14;;;;;;;1.30;1.00;;;14.20;55.00;;;;;;4973503;28;20457;-70
2022/09/25 02:53:02;;;;;;;1.30;1.10;;;14.10;56.50;;;;;;4972283;28;20461;-70
2022/09/25 02:55:52;;;;;;;1.30;1.10;;;14.30;55.50;;;;;;4973477;28;20442;-70
2022/09/25 02:58:33;;;;;;;1.30;1.00;;;14.40;54.00;;;;;;4973048;28;20421;-70
2022/09/25 03:01:01;;;;;;;1.30;1.20;;;14.70;53.40;;;;;;4972986;28;20233;-70
2022/09/25 03:03:27;;;;;;;1.30;1.10;;;14.60;52.80;;;;;;4972908;28;20433;-70
2022/09/25 03:05:57;;;;;;;1.30;1.17;;;14.70;53.60;;;;;;4973246;28;20925;-69
2022/09/25 03:08:36;;;;;;;1.40;1.20;;;14.60;54.80;;;;;;4973177;28;20422;-70
2022/09/25 03:11:04;;;;;;;1.30;1.10;;;14.50;55.00;;;;;;4972607;28;20473;-69
2022/09/25 03:13:32;;;;;;;1.33;1.20;;;14.70;54.90;;;;;;4964547;28;20422;-70
2022/09/25 03:16:10;;;;;;;1.40;1.30;;;14.70;54.50;;;;;;5018821;23;20492;-69
2022/09/25 03:18:36;;;;;;;1.30;1.17;;;14.80;53.00;;;;;;5031096;28;20423;-69
2022/09/25 03:21:03;;;;;;;1.30;1.20;;;14.90;52.90;;;;;;5031234;28;20424;-69
2022/09/25 03:23:30;;;;;;;1.30;1.20;;;14.90;53.10;;;;;;5031207;28;20430;-69
2022/09/25 03:25:55;;;;;;;1.30;1.10;;;14.90;53.10;;;;;;5018518;28;20439;-70
2022/09/25 03:28:22;;;;;;;1.30;1.00;;;14.90;53.20;;;;;;5003881;28;20731;-69
2022/09/25 03:31:05;;;;;;;1.30;1.10;;;15.00;51.50;;;;;;5003342;28;20674;-70
2022/09/25 03:33:35;;;;;;;1.30;1.10;;;15.10;50.90;;;;;;5011049;28;20523;-69
2022/09/25 03:36:21;;;;;;;1.30;1.10;;;14.90;53.10;;;;;;5003650;28;20961;-69
2022/09/25 03:38:49;;;;;;;1.30;1.20;;;15.00;52.90;;;;;;5011782;28;20428;-69
2022/09/25 03:41:20;;;;;;;1.30;1.10;;;14.90;53.10;;;;;;5004060;28;20437;-69
2022/09/25 03:43:48;;;;;;;1.30;1.10;;;15.00;53.20;;;;;;5003840;28;20420;-70
2022/09/25 03:46:14;;;;;;;1.30;1.00;;;14.80;53.00;;;;;;5011438;28;20523;-69
2022/09/25 03:48:40;;;;;;;1.30;1.10;;;14.80;54.50;;;;;;5009453;28;20982;-70
2022/09/25 03:51:07;;;;;;;1.30;1.20;;;14.80;54.20;;;;;;5005891;28;20499;-69
2022/09/25 03:53:32;;;;;;;1.30;1.20;;;14.70;54.20;;;;;;5011076;28;20429;-70
2022/09/25 03:56:03;;;;;;;1.30;1.20;;;14.70;54.80;;;;;;5003526;28;20446;-69
2022/09/25 03:58:29;;;;;;;1.40;1.30;;;14.70;54.90;;;;;;5003345;28;20261;-69
2022/09/25 04:00:56;;;;;;;1.30;1.00;;;14.70;55.10;;;;;;5007701;28;20508;-69
2022/09/25 04:03:23;;;;;;;1.30;1.13;;;14.70;55.20;;;;;;5006983;28;20173;-69
2022/09/25 04:05:49;;;;;;;1.30;1.10;;;14.80;54.80;;;;;;5006582;28;20479;-69
2022/09/25 04:08:15;;;;;;;1.30;1.13;;;14.80;54.60;;;;;;5000084;28;20428;-68
2022/09/25 04:10:40;;;;;;;1.30;1.30;;;14.80;55.00;;;;;;5000965;28;20863;-69
2022/09/25 04:13:07;;;;;;;1.30;1.20;;;14.90;54.70;;;;;;5010083;28;20212;-69
2022/09/25 04:15:33;;;;;;;2.13;1.43;;;14.80;55.50;;;;;;5007136;28;20205;-68
2022/09/25 04:17:59;;;;;;;1.30;1.20;;;15.00;54.80;;;;;;5010860;28;20455;-68
2022/09/25 04:20:25;;;;;;;1.30;1.10;;;15.00;54.40;;;;;;5004976;28;20420;-69
2022/09/25 04:22:51;;;;;;;1.30;1.10;;;15.10;54.20;;;;;;5008961;28;20566;-67
2022/09/25 04:25:20;;;;;;;1.30;1.20;;;15.20;53.40;;;;;;5011138;28;20477;-68
2022/09/25 04:27:45;;;;;;;1.30;1.10;;;15.10;54.30;;;;;;5002013;28;20182;-69
2022/09/25 04:30:12;;;;;;;1.30;1.10;;;15.40;54.50;;;;;;4999662;28;20421;-69
2022/09/25 04:35:22;;;;;;;1.30;1.10;;;15.20;55.20;;;;;;5010886;28;20807;-68
2022/09/25 04:37:47;;;;;;;1.30;1.20;;;14.90;55.00;;;;;;5010009;28;20420;-69
2022/09/25 04:40:13;;;;;;;1.30;1.20;;;15.00;54.60;;;;;;5011258;28;20171;-67
2022/09/25 04:42:41;;;;;;;1.30;1.20;;;15.10;54.30;;;;;;5003100;28;20240;-68
2022/09/25 04:45:06;;;;;;;1.30;1.10;;;15.00;54.40;;;;;;5007241;28;20289;-68
2022/09/25 04:47:32;;;;;;;1.30;1.20;;;15.00;54.50;;;;;;4999818;28;20512;-68
2022/09/25 04:49:58;;;;;;;1.30;1.10;;;15.40;54.70;;;;;;5009345;28;20186;-69
2022/09/25 04:52:23;;;;;;;1.30;1.10;;;15.40;54.00;;;;;;5010526;28;20668;-68
2022/09/25 04:54:49;;;;;;;1.30;1.20;;;15.10;53.80;;;;;;5002364;28;20234;-68
2022/09/25 04:57:19;;;;;;;1.30;1.10;;;15.20;53.60;;;;;;5011082;28;20174;-67
2022/09/25 04:59:45;;;;;;;1.30;1.20;;;15.10;53.80;;;;;;5003393;28;20253;-68
2022/09/25 05:02:11;;;;;;;1.30;1.10;;;15.10;54.30;;;;;;5006805;28;20441;-67
2022/09/25 05:04:37;;;;;;;1.30;1.13;;;15.10;54.70;;;;;;5005140;28;20186;-68
2022/09/25 05:07:03;;;;;;;1.33;1.23;;;15.10;54.90;;;;;;5002601;28;20433;-67
2022/09/25 05:09:30;;;;;;;1.30;1.20;;;15.10;55.40;;;;;;5009089;28;20517;-67
2022/09/25 05:11:56;;;;;;;1.30;1.20;;;15.20;55.30;;;;;;5010180;28;20467;-68
2022/09/25 05:14:22;;;;;;;2.13;1.37;;;15.30;54.60;;;;;;5002584;28;20429;-67
2022/09/25 05:16:48;;;;;;;1.30;1.10;;;15.20;54.40;;;;;;5004659;28;20244;-67
2022/09/25 05:19:14;;;;;;;1.30;1.17;;;15.20;54.80;;;;;;5006703;28;20819;-69
2022/09/25 05:21:40;;;;;;;1.40;1.30;;;15.20;55.00;;;;;;5006224;28;20445;-72
2022/09/25 05:24:09;;;;;;;1.30;1.20;;;15.30;55.60;;;;;;5013501;28;20535;-70
2022/09/25 05:26:36;;;;;;;1.30;1.20;;;15.30;54.70;;;;;;5006542;28;20486;-71
2022/09/25 05:29:03;;;;;;;1.30;1.10;;;15.50;53.70;;;;;;5006202;28;20468;-70
2022/09/25 05:31:30;;;;;;;1.30;1.20;;;15.50;53.00;;;;;;5013642;28;20559;-68
2022/09/25 05:33:55;;;;;;;1.30;1.20;;;15.40;53.60;;;;;;5005794;28;20426;-69
2022/09/25 05:36:21;;;;;;;1.30;1.13;;;15.40;54.00;;;;;;5013171;28;20451;-68
2022/09/25 05:38:47;;;;;;;1.30;1.10;;;15.30;54.60;;;;;;5008249;28;20175;-68
2022/09/25 05:41:12;;;;;;;1.30;1.20;;;15.50;53.70;;;;;;5011834;28;20217;-68
2022/09/25 05:43:43;;;;;;;1.30;1.10;;;15.40;53.60;;;;;;5009933;28;20240;-68
2022/09/25 05:46:09;;;;;;;1.30;1.10;;;15.40;54.00;;;;;;5013955;28;20290;-69
2022/09/25 05:48:35;;;;;;;1.30;1.20;;;15.40;53.60;;;;;;5009969;28;20491;-69
2022/09/25 05:51:01;;;;;;;1.30;1.17;;;15.40;54.30;;;;;;5002288;28;20426;-68
2022/09/25 05:53:29;;;;;;;1.30;1.20;;;15.30;53.50;;;;;;5013362;28;20195;-69
2022/09/25 05:55:57;;;;;;;1.30;1.20;;;15.30;53.90;;;;;;5005959;28;20455;-68
2022/09/25 05:58:24;;;;;;;1.30;1.10;;;15.30;54.20;;;;;;5013446;28;20429;-68
2022/09/25 06:00:50;;;;;;;1.30;1.20;;;15.30;54.90;;;;;;5013774;28;20432;-68
2022/09/25 06:03:16;;;;;;;1.30;1.20;;;15.40;55.90;;;;;;5005392;28;20501;-69
2022/09/25 06:05:44;;;;;;;1.30;1.17;;;15.50;54.10;;;;;;5005236;28;20205;-68
2022/09/25 06:08:10;;;;;;;1.30;1.07;;;15.50;53.70;;;;;;5013619;28;20426;-68
2022/09/25 06:10:36;;;;;;;1.30;1.30;;;15.70;53.90;;;;;;5011550;28;20479;-68
2022/09/25 06:13:03;;;;;;;1.30;1.20;;;15.60;53.80;;;;;;5008753;28;20469;-69
2022/09/25 06:15:36;;;;;;;1.30;1.20;;;15.60;55.30;;;;;;5013392;28;20229;-69
2022/09/25 06:18:06;;;;;;;1.30;1.10;;;15.60;54.40;;;;;;5013122;28;20919;-68
2022/09/25 06:20:31;;;;;;;1.30;1.13;;;15.70;54.50;;;;;;5010650;28;20452;-68
2022/09/25 06:22:59;;;;;;;1.30;1.10;;;15.80;54.80;;;;;;5007483;28;20432;-68
2022/09/25 06:25:28;;;;;;;1.30;1.20;;;15.90;54.10;;;;;;5011587;28;20206;-71
2022/09/25 06:27:56;;;;;;;1.30;1.10;;;15.90;54.10;;;;;;5005856;28;20433;-70
2022/09/25 06:30:26;;;;;;;1.30;1.10;;;15.90;53.60;;;;;;5013478;28;20438;-69
2022/09/25 06:33:08;;;;;;;1.40;1.20;;;15.90;54.10;;;;;;5011713;28;20909;-69
2022/09/25 06:35:35;;;;;;;1.30;1.20;;;15.80;54.70;;;;;;5005136;28;20474;-69
2022/09/25 06:38:02;;;;;;;2.13;1.57;;;15.80;54.00;;;;;;5012928;28;20445;-69
2022/09/25 06:40:30;;;;;;;1.40;1.30;;;15.90;54.90;;;;;;5005029;28;20433;-69
2022/09/25 06:43:03;;;;;;;1.30;1.20;;;16.10;54.20;;;;;;5007556;28;20853;-69
2022/09/25 06:45:32;;;;;;;1.30;1.10;;;16.10;54.20;;;;;;5009418;28;20468;-69
2022/09/25 06:48:05;;;;;;;1.30;1.10;;;16.10;54.70;;;;;;5001703;28;20519;-69
2022/09/25 06:50:41;;;;;;;1.40;1.30;;;16.20;54.40;;;;;;5002216;28;20527;-69
2022/09/25 06:53:07;;;;;;;1.30;1.10;;;16.20;54.00;;;;;;5003936;28;20473;-69
2022/09/25 06:55:33;;;;;;;1.30;1.10;;;16.10;54.30;;;;;;5004439;28;20460;-70
2022/09/25 06:58:00;;;;;;;1.30;1.20;;;15.90;54.10;;;;;;5012974;28;20431;-69
2022/09/25 07:00:25;;;;;;;1.30;1.20;;;16.10;54.70;;;;;;5012708;28;20474;-70
2022/09/25 07:05:35;;;;;;;2.03;1.73;;;16.00;55.50;;;;;;5012170;28;20757;-69
2022/09/25 07:08:01;;;;;;;1.30;1.20;;;15.90;55.30;;;;;;5012425;28;20519;-69
2022/09/25 07:10:26;;;;;;;1.30;1.10;;;16.10;55.00;;;;;;5012548;28;20591;-69
2022/09/25 07:12:52;;;;;;;1.30;1.00;;;16.20;54.80;;;;;;5011507;28;20477;-69
2022/09/25 07:15:18;;;;;;;1.30;1.23;;;16.20;54.40;;;;;;5012080;28;20676;-69
2022/09/25 07:17:44;;;;;;;1.30;1.10;;;16.20;55.10;;;;;;5010631;28;20610;-70
2022/09/25 07:20:12;;;;;;;1.30;1.20;;;16.40;53.30;;;;;;5006336;28;20185;-69
2022/09/25 07:22:39;;;;;;;1.30;1.20;;;16.40;53.40;;;;;;5010994;28;20434;-69
2022/09/25 07:25:06;;;;;;;1.30;1.20;;;16.50;53.40;;;;;;5011330;28;20958;-69
2022/09/25 07:27:31;;;;;;;1.33;1.23;;;16.60;52.70;;;;;;5011877;28;20435;-70
2022/09/25 07:29:57;;;;;;;1.30;1.20;;;16.60;52.60;;;;;;5000878;28;20483;-69
2022/09/25 07:32:23;;;;;;;1.30;1.20;;;16.50;52.80;;;;;;5006865;28;20568;-69
2022/09/25 07:34:49;;;;;;;1.30;1.10;;;16.70;53.00;;;;;;5003444;28;20610;-69
2022/09/25 07:37:15;;;;;;;1.30;1.20;;;16.70;52.80;;;;;;5003948;28;20186;-69
2022/09/25 07:39:41;;;;;;;1.30;1.10;;;16.70;54.70;;;;;;5011123;28;20427;-69
2022/09/25 07:42:07;;;;;;;1.30;1.20;;;16.80;53.00;;;;;;5007297;28;20912;-69
2022/09/25 07:44:33;;;;;;;1.30;1.30;;;16.80;52.30;;;;;;5008127;28;20467;-69
2022/09/25 07:47:00;;;;;;;1.30;1.10;;;16.70;51.50;;;;;;5003652;28;20271;-69
2022/09/25 07:49:27;;;;;;;1.30;1.13;;;16.80;51.90;;;;;;5005277;28;20183;-69
2022/09/25 07:51:53;;;;;;;1.30;1.20;;;16.90;51.70;;;;;;5007534;28;20456;-69
2022/09/25 07:54:18;;;;;;;1.30;1.10;;;16.50;53.50;;;;;;5005345;28;20433;-69
2022/09/25 07:56:44;;;;;;;1.30;1.10;;;16.70;54.80;;;;;;5003083;28;20208;-70
2022/09/25 07:59:10;;;;;;;1.50;1.30;;;17.10;51.10;;;;;;5011582;28;20192;-69
2022/09/25 08:01:35;;;;;;;1.30;1.20;;;16.80;51.50;;;;;;5003662;28;20213;-69
2022/09/25 08:04:01;;;;;;;1.30;1.20;;;16.70;52.50;;;;;;5010884;28;20660;-69
2022/09/25 08:06:27;;;;;;;1.30;1.13;;;16.90;52.50;;;;;;5011575;28;20288;-70
2022/09/25 08:08:52;;;;;;;1.70;1.40;;;16.80;54.30;;;;;;5011579;28;20188;-69
2022/09/25 08:11:18;;;;;;;1.50;1.20;;;17.20;51.20;;;;;;5011105;28;20212;-69
2022/09/25 08:13:44;;;;;;;1.30;1.20;;;17.20;51.30;;;;;;5003055;28;20265;-69
2022/09/25 08:16:12;;;;;;;1.30;1.10;;;17.20;50.80;;;;;;5011272;28;20217;-69
2022/09/25 08:18:44;;;;;;;1.30;1.20;;;17.00;52.40;;;;;;5011153;28;20503;-69
2022/09/25 08:21:13;;;;;;;1.30;1.20;;;16.70;53.30;;;;;;5010346;28;20464;-69
2022/09/25 08:23:42;;;;;;;1.30;1.10;;;16.40;53.10;;;;;;5011096;28;20420;-69
2022/09/25 08:26:08;;;;;;;1.30;1.13;;;15.80;60.10;;;;;;5002401;28;21822;-69
2022/09/25 08:28:34;;;;;;;1.30;1.27;;;16.10;59.70;;;;;;5010733;28;20514;-68
2022/09/25 08:31:02;;;;;;;1.50;1.47;;;16.30;55.80;;;;;;5010435;28;20185;-68
2022/09/25 08:33:28;;;;;;;1.60;1.40;;;15.60;61.30;;;;;;5010842;28;20413;-69
2022/09/25 08:35:56;;;;;;;1.30;1.10;;;15.80;61.00;;;;;;5010127;28;20962;-69
2022/09/25 08:38:23;;;;;;;1.30;1.20;;;16.00;58.30;;;;;;5004160;28;20181;-69
2022/09/25 08:41:13;;;;;;;1.40;1.20;;;16.50;57.30;;;;;;5011180;28;20814;-69
2022/09/25 08:44:04;;;;;;;1.30;1.10;;;17.00;55.80;;;;;;5010542;28;20439;-69
2022/09/25 08:49:47;;;;;;;1.30;1.10;;;16.70;55.30;;;;;;5005937;28;20843;-69
2022/09/25 08:52:17;;;;;;;1.50;1.40;;;16.30;55.90;;;;;;5002737;28;20559;-69
2022/09/25 08:54:43;;;;;;;1.30;1.10;;;16.00;58.00;;;;;;5010018;28;20447;-69
2022/09/25 08:57:15;;;;;;;1.30;1.10;;;16.10;58.10;;;;;;5006910;28;20421;-69
2022/09/25 08:59:45;;;;;;;1.30;1.10;;;16.50;59.00;;;;;;5015085;28;20413;-69
2022/09/25 09:02:18;;;;;;;1.30;1.30;;;17.30;55.80;;;;;;5012351;28;20885;-69
2022/09/25 09:04:56;;;;;;;1.30;1.10;;;17.70;51.50;;;;;;5009359;28;20848;-69
2022/09/25 09:07:36;;;;;;;1.30;1.10;;;17.50;51.10;;;;;;5011454;28;20800;-69
2022/09/25 09:10:17;;;;;;;1.30;1.30;;;17.00;54.00;;;;;;5009955;28;20844;-69
2022/09/25 09:12:49;;;;;;;1.30;1.30;;;17.50;53.40;;;;;;5014282;28;20449;-69
2022/09/25 09:15:24;;;;;;;1.30;1.20;;;17.90;50.80;;;;;;5006032;28;20471;-69
2022/09/25 09:17:52;;;;;;;1.30;1.20;;;16.70;54.80;;;;;;5008148;28;20427;-70
2022/09/25 09:20:23;;;;;;;1.30;1.20;;;16.40;58.10;;;;;;5013116;28;20416;-69
2022/09/25 09:22:51;;;;;;;1.30;1.13;;;16.10;61.40;;;;;;5006027;28;20434;-69
2022/09/25 09:25:25;;;;;;;1.30;1.20;;;16.30;59.80;;;;;;5014305;28;20436;-69
2022/09/25 09:28:36;;;;;;;1.30;1.17;;;16.80;61.60;;;;;;5014021;28;21034;-69
2022/09/25 09:31:17;;;;;;;1.30;1.10;;;17.80;52.10;;;;;;4999381;28;20436;-69
2022/09/25 09:33:52;;;;;;;1.30;1.20;;;18.20;51.30;;;;;;5008088;28;20461;-69
2022/09/25 09:36:50;;;;;;;1.30;1.30;;;18.10;52.30;;;;;;5013851;28;20431;-69
2022/09/25 09:39:18;;;;;;;1.30;1.30;;;18.40;50.60;;;;;;5006236;28;20430;-69
2022/09/25 09:42:16;;;;;;;1.30;1.10;;;17.80;51.80;;;;;;5013911;28;20420;-69
2022/09/25 09:44:57;;;;;;;1.30;1.13;;;17.20;54.20;;;;;;5005853;28;20419;-69
2022/09/25 09:47:32;;;;;;;1.43;1.30;;;18.20;53.60;;;;;;5005738;28;20448;-69
2022/09/25 09:50:23;;;;;;;1.30;1.10;;;18.10;50.90;;;;;;5006145;28;20439;-69
2022/09/25 09:52:57;;;;;;;1.30;1.20;;;17.50;52.80;;;;;;5007296;28;20872;-69
2022/09/25 09:55:42;;;;;;;1.30;1.20;;;17.80;52.60;;;;;;5003754;28;20537;-69
2022/09/25 09:58:24;;;;;;;1.30;1.10;;;18.70;47.50;;;;;;5010280;28;20471;-69
2022/09/25 10:00:50;;;;;;;1.30;1.30;;;19.40;45.20;;;;;;5007119;28;20947;-70
2022/09/25 10:03:27;;;;;;;1.30;1.13;;;19.50;43.90;;;;;;5012830;28;20429;-70
2022/09/25 10:06:03;;;;;;;1.30;1.20;;;19.30;45.40;;;;;;5008289;28;20571;-69
2022/09/25 10:08:29;;;;;;;1.30;1.17;;;18.90;45.90;;;;;;5003884;28;20947;-69
2022/09/25 10:10:58;;;;;;;1.30;1.20;;;18.10;47.60;;;;;;5005338;28;20540;-69
2022/09/25 10:13:33;;;;;;;1.30;1.10;;;18.40;47.80;;;;;;5012223;28;20426;-69
2022/09/25 10:16:12;;;;;;;1.30;1.20;;;19.00;47.50;;;;;;5012410;28;20460;-69
2022/09/25 10:18:45;;;;;;;1.30;1.10;;;18.30;47.30;;;;;;5014338;28;20430;-68
2022/09/25 10:21:27;;;;;;;1.30;1.10;;;17.30;50.50;;;;;;5006334;28;20430;-69
2022/09/25 10:23:54;;;;;;;1.30;1.30;;;17.50;52.10;;;;;;5005630;28;20824;-69
2022/09/25 10:26:35;;;;;;;1.30;1.27;;;17.70;48.40;;;;;;5005142;28;20446;-70
2022/09/25 10:29:26;;;;;;;1.30;1.10;;;17.60;49.60;;;;;;5007790;28;20776;-69
2022/09/25 10:32:02;;;;;;;1.30;1.10;;;17.90;48.90;;;;;;5005041;28;20466;-69
2022/09/25 10:34:30;;;;;;;1.30;1.20;;;17.90;46.40;;;;;;5004583;28;20411;-70
2022/09/25 10:36:56;;;;;;;1.30;1.27;;;17.90;46.40;;;;;;5005121;28;20421;-71
2022/09/25 10:39:29;;;;;;;1.30;1.23;;;17.90;47.10;;;;;;5012634;28;20434;-69
2022/09/25 10:41:57;;;;;;;1.30;1.10;;;17.90;46.00;;;;;;5005376;28;20465;-70
2022/09/25 10:44:33;;;;;;;1.30;1.20;;;17.50;46.90;;;;;;5012741;28;20424;-71
2022/09/25 10:50:13;;;;;;;1.30;1.10;;;17.90;46.40;;;;;;5005592;28;20500;-70
2022/09/25 10:52:57;;;;;;;1.30;1.20;;;18.40;45.90;;;;;;5012026;28;20499;-70
2022/09/25 10:55:29;;;;;;;1.30;1.10;;;18.10;44.80;;;;;;5005088;28;20538;-69
2022/09/25 10:58:08;;;;;;;1.30;1.20;;;17.80;45.40;;;;;;5004440;28;20427;-69
2022/09/25 11:00:52;;;;;;;1.30;1.20;;;18.40;44.40;;;;;;5012532;28;20505;-69
2022/09/25 11:03:28;;;;;;;1.30;1.20;;;17.80;44.20;;;;;;5004488;28;20840;-69
2022/09/25 11:06:04;;;;;;;1.30;1.17;;;18.10;44.80;;;;;;5008945;28;21188;-69
2022/09/25 11:08:35;;;;;;;1.30;1.13;;;18.70;42.50;;;;;;5009057;28;20422;-69
2022/09/25 11:11:02;;;;;;;1.30;1.20;;;19.70;40.80;;;;;;5004641;28;20420;-70
2022/09/25 11:13:35;;;;;;;1.30;1.20;;;19.90;40.00;;;;;;5011837;28;20425;-70
2022/09/25 11:16:09;;;;;;;1.30;1.20;;;20.20;36.60;;;;;;4999514;28;20481;-69
2022/09/25 11:18:45;;;;;;;1.30;1.20;;;19.60;37.40;;;;;;5004629;28;20423;-70
2022/09/25 11:21:27;;;;;;;1.30;1.10;;;19.00;38.00;;;;;;5012059;28;20932;-69
2022/09/25 11:23:56;;;;;;;1.30;1.20;;;18.70;43.90;;;;;;5011305;28;20508;-69
2022/09/25 11:26:28;;;;;;;3.97;1.77;;;18.90;39.90;;;;;;5004755;28;20443;-70
2022/09/25 11:29:03;;;;;;;1.30;1.20;;;18.70;40.10;;;;;;5010925;28;20495;-69
2022/09/25 11:31:58;;;;;;;1.30;1.20;;;18.70;40.50;;;;;;5003689;28;20490;-70
2022/09/25 11:34:44;;;;;;;1.30;1.20;;;18.50;41.00;;;;;;5012005;28;20768;-70
2022/09/25 11:37:26;;;;;;;1.40;1.20;;;17.90;41.70;;;;;;5003998;28;20838;-71
2022/09/25 11:43:05;;;;;;;1.30;1.10;;;18.30;40.80;;;;;;5001345;28;20451;-70
2022/09/25 11:45:45;;;;;;;1.33;1.23;;;18.20;40.40;;;;;;5011349;28;20504;-70
2022/09/25 11:48:43;;;;;;;1.40;1.30;;;17.90;43.50;;;;;;5011877;28;20505;-70
2022/09/25 11:51:39;;;;;;;1.30;1.20;;;17.60;43.20;;;;;;4987601;28;20436;-70
2022/09/25 11:54:37;;;;;;;1.30;1.27;;;18.40;41.70;;;;;;4999470;28;20437;-71
2022/09/25 11:57:09;;;;;;;1.30;1.10;;;19.10;39.20;;;;;;5000059;28;20436;-71
2022/09/25 11:59:59;;;;;;;1.30;1.20;;;19.30;37.60;;;;;;5011528;28;20418;-70
2022/09/25 12:03:07;;;;;;;1.30;1.23;;;19.10;37.70;;;;;;5004641;28;20425;-70
2022/09/25 12:05:49;;;;;;;1.30;1.20;;;18.80;39.30;;;;;;5007509;28;20941;-69
2022/09/25 12:08:36;;;;;;;1.30;1.17;;;18.80;40.50;;;;;;5003329;28;20427;-70
2022/09/25 12:11:13;;;;;;;1.30;1.20;;;18.50;41.80;;;;;;5011037;28;20776;-70
2022/09/25 12:14:06;;;;;;;1.30;1.10;;;18.10;43.10;;;;;;5011165;28;20424;-70
2022/09/25 12:16:35;;;;;;;1.30;1.20;;;17.80;44.50;;;;;;5004424;28;20883;-69
2022/09/25 12:19:16;;;;;;;1.30;1.10;;;17.40;45.10;;;;;;5009322;28;20470;-70
2022/09/25 12:21:52;;;;;;;1.47;1.27;;;16.90;48.10;;;;;;5002799;28;20429;-70
2022/09/25 12:24:25;;;;;;;1.30;1.20;;;17.10;49.10;;;;;;5010892;28;20434;-70
2022/09/25 12:26:58;;;;;;;1.30;1.20;;;16.90;49.70;;;;;;5010570;28;20438;-71
2022/09/25 12:29:34;;;;;;;1.30;1.10;;;17.00;52.80;;;;;;5003457;28;20453;-70
2022/09/25 12:32:13;;;;;;;1.30;1.20;;;17.40;49.90;;;;;;5002518;28;20809;-70
2022/09/25 12:35:17;;;;;;;1.30;1.10;;;17.90;46.30;;;;;;5002993;28;20447;-70
2022/09/25 12:37:51;;;;;;;1.30;1.10;;;17.70;42.30;;;;;;5006413;28;20440;-70
2022/09/25 12:40:39;;;;;;;1.30;1.00;;;17.50;43.30;;;;;;5011180;28;20908;-71
2022/09/25 12:43:35;;;;;;;1.40;1.30;;;17.70;43.40;;;;;;5001812;28;20441;-70
2022/09/25 12:46:21;;;;;;;1.33;1.20;;;17.70;44.30;;;;;;5003306;28;20460;-70
2022/09/25 12:48:50;;;;;;;1.30;1.20;;;18.30;43.40;;;;;;4994908;28;20430;-70
2022/09/25 12:51:18;;;;;;;1.30;1.13;;;18.50;43.80;;;;;;5008067;28;20834;-71
2022/09/25 12:53:47;;;;;;;1.30;1.13;;;17.80;45.60;;;;;;5005126;28;20420;-70
2022/09/25 12:56:25;;;;;;;1.30;1.10;;;18.00;47.10;;;;;;5002566;28;20452;-70
2022/09/25 12:59:10;;;;;;;1.30;1.10;;;18.40;45.40;;;;;;5010946;28;20797;-70
2022/09/25 13:02:05;;;;;;;1.30;1.20;;;18.40;43.80;;;;;;5002358;28;20430;-70
2022/09/25 13:04:48;;;;;;;1.30;1.20;;;18.70;44.30;;;;;;5007271;28;20451;-70
2022/09/25 13:07:50;;;;;;;1.30;1.20;;;19.60;41.30;;;;;;5008783;28;20434;-70
2022/09/25 13:10:43;;;;;;;1.30;1.20;;;19.00;41.40;;;;;;5002600;28;20428;-70
2022/09/25 13:13:18;;;;;;;1.30;1.20;;;18.30;42.10;;;;;;4999377;28;20993;-69
2022/09/25 13:15:53;;;;;;;1.30;1.10;;;18.10;44.20;;;;;;5009281;28;20533;-71
2022/09/25 13:18:21;;;;;;;1.30;1.10;;;18.60;42.90;;;;;;5008859;28;20425;-70
2022/09/25 13:20:55;;;;;;;1.30;1.20;;;19.00;39.90;;;;;;4999125;28;20542;-70
2022/09/25 13:23:27;;;;;;;1.30;1.10;;;18.80;40.10;;;;;;5008872;28;20433;-70
2022/09/25 13:25:59;;;;;;;1.30;1.10;;;18.90;40.60;;;;;;5010627;28;20449;-70
2022/09/25 13:28:35;;;;;;;1.30;1.23;;;19.00;37.60;;;;;;4998585;28;20436;-71
2022/09/25 13:31:11;;;;;;;1.60;1.37;;;18.50;39.80;;;;;;5001724;28;20514;-70
2022/09/25 13:34:04;;;;;;;1.30;1.20;;;19.20;38.60;;;;;;5002565;28;20436;-70